Terminal Aerodrome Forecast
Issued by NWS

Home | Current Version | Previous Version | Text Only | Print | Product List | Glossary On
Versions: 1 2 3 4 5 6 7 8 9 10 11 12 13
272
FTUS45 KREV 181121
TAFMMH
TAF
KMMH 181121Z 1812/1912 29013G22KT P6SM SCT150 WS020/26040KT
     FM181800 24037G48KT P6SM SCT100 WS020/28060KT
     FM190400 25024G37KT P6SM VCSH BKN040=

USA.gov is the U.S. government's official web portal to all federal, state and local government web resources and services.